sensor_id;sensor_type;location;lat;lon;timestamp;P1;durP1;ratioP1;P2;durP2;ratioP2
14320;SDS011;7244;47.364;8.464;2022-12-18T00:03:01;56;;;28;;
14320;SDS011;7244;47.364;8.464;2022-12-18T00:19:02;53;;;25;;
14320;SDS011;7244;47.364;8.464;2022-12-18T00:34:02;53;;;26;;
14320;SDS011;7244;47.364;8.464;2022-12-18T00:50:01;62;;;28;;
14320;SDS011;7244;47.364;8.464;2022-12-18T01:06:05;52;;;25;;
14320;SDS011;7244;47.364;8.464;2022-12-18T01:22:02;63;;;28;;
14320;SDS011;7244;47.364;8.464;2022-12-18T01:37:02;63;;;30;;
14320;SDS011;7244;47.364;8.464;2022-12-18T01:53:03;59;;;28;;
14320;SDS011;7244;47.364;8.464;2022-12-18T02:09:05;59;;;27;;
14320;SDS011;7244;47.364;8.464;2022-12-18T02:25:05;59;;;26;;
14320;SDS011;7244;47.364;8.464;2022-12-18T02:40:02;63;;;29;;
14320;SDS011;7244;47.364;8.464;2022-12-18T02:56:03;66;;;30;;
14320;SDS011;7244;47.364;8.464;2022-12-18T03:12:04;62;;;27;;
14320;SDS011;7244;47.364;8.464;2022-12-18T03:27:02;81;;;36;;
14320;SDS011;7244;47.364;8.464;2022-12-18T03:43:03;65;;;29;;
14320;SDS011;7244;47.364;8.464;2022-12-18T03:59:02;66;;;28;;
14320;SDS011;7244;47.364;8.464;2022-12-18T04:15:02;60;;;26;;
14320;SDS011;7244;47.364;8.464;2022-12-18T04:30:02;53;;;23;;
14320;SDS011;7244;47.364;8.464;2022-12-18T04:46:02;65;;;27;;
14320;SDS011;7244;47.364;8.464;2022-12-18T05:02:02;56;;;25;;
14320;SDS011;7244;47.364;8.464;2022-12-18T05:18:02;50;;;22;;
14320;SDS011;7244;47.364;8.464;2022-12-18T05:33:02;61;;;27;;
14320;SDS011;7244;47.364;8.464;2022-12-18T05:49:02;56;;;25;;
14320;SDS011;7244;47.364;8.464;2022-12-18T06:05:02;57;;;24;;
14320;SDS011;7244;47.364;8.464;2022-12-18T06:20:01;62;;;25;;
14320;SDS011;7244;47.364;8.464;2022-12-18T06:36:02;51;;;23;;
14320;SDS011;7244;47.364;8.464;2022-12-18T06:52:01;60;;;26;;
14320;SDS011;7244;47.364;8.464;2022-12-18T07:08:02;55;;;23;;
14320;SDS011;7244;47.364;8.464;2022-12-18T07:23:01;61;;;27;;
14320;SDS011;7244;47.364;8.464;2022-12-18T07:39:01;63;;;25;;
14320;SDS011;7244;47.364;8.464;2022-12-18T07:55:02;53;;;23;;
14320;SDS011;7244;47.364;8.464;2022-12-18T08:11:01;59;;;24;;
14320;SDS011;7244;47.364;8.464;2022-12-18T08:26:02;67;;;27;;
14320;SDS011;7244;47.364;8.464;2022-12-18T08:42:01;63;;;25;;
14320;SDS011;7244;47.364;8.464;2022-12-18T08:58:01;62;;;27;;
14320;SDS011;7244;47.364;8.464;2022-12-18T09:13:01;60;;;24;;
14320;SDS011;7244;47.364;8.464;2022-12-18T09:29:02;69;;;27;;
14320;SDS011;7244;47.364;8.464;2022-12-18T09:45:02;69;;;27;;
14320;SDS011;7244;47.364;8.464;2022-12-18T09:46:03;69;;;27;;
14320;SDS011;7244;47.364;8.464;2022-12-18T09:47:09;69;;;27;;
14320;SDS011;7244;47.364;8.464;2022-12-18T09:48:02;69;;;27;;
14320;SDS011;7244;47.364;8.464;2022-12-18T09:49:02;69;;;27;;
14320;SDS011;7244;47.364;8.464;2022-12-18T09:50:04;69;;;27;;
14320;SDS011;7244;47.364;8.464;2022-12-18T09:51:02;69;;;27;;
14320;SDS011;7244;47.364;8.464;2022-12-18T09:52:03;69;;;27;;
14320;SDS011;7244;47.364;8.464;2022-12-18T09:53:04;69;;;27;;
14320;SDS011;7244;47.364;8.464;2022-12-18T09:54:03;69;;;27;;
14320;SDS011;7244;47.364;8.464;2022-12-18T09:55:03;69;;;27;;
14320;SDS011;7244;47.364;8.464;2022-12-18T09:56:02;69;;;27;;
14320;SDS011;7244;47.364;8.464;2022-12-18T09:57:02;69;;;27;;
14320;SDS011;7244;47.364;8.464;2022-12-18T09:58:02;69;;;27;;
14320;SDS011;7244;47.364;8.464;2022-12-18T09:59:02;69;;;27;;
14320;SDS011;7244;47.364;8.464;2022-12-18T10:00:04;69;;;27;;
14320;SDS011;7244;47.364;8.464;2022-12-18T10:01:01;69;;;27;;
14320;SDS011;7244;47.364;8.464;2022-12-18T10:02:10;69;;;27;;
14320;SDS011;7244;47.364;8.464;2022-12-18T10:03:03;69;;;27;;
14320;SDS011;7244;47.364;8.464;2022-12-18T10:04:01;69;;;27;;
14320;SDS011;7244;47.364;8.464;2022-12-18T10:05:06;69;;;27;;
14320;SDS011;7244;47.364;8.464;2022-12-18T10:06:03;69;;;27;;
14320;SDS011;7244;47.364;8.464;2022-12-18T10:07:03;69;;;27;;
14320;SDS011;7244;47.364;8.464;2022-12-18T10:08:02;69;;;27;;
14320;SDS011;7244;47.364;8.464;2022-12-18T10:09:03;69;;;27;;
14320;SDS011;7244;47.364;8.464;2022-12-18T10:10:03;69;;;27;;
14320;SDS011;7244;47.364;8.464;2022-12-18T10:11:03;69;;;27;;
14320;SDS011;7244;47.364;8.464;2022-12-18T10:12:05;69;;;27;;
14320;SDS011;7244;47.364;8.464;2022-12-18T10:13:03;69;;;27;;
14320;SDS011;7244;47.364;8.464;2022-12-18T10:14:03;69;;;27;;
14320;SDS011;7244;47.364;8.464;2022-12-18T10:15:02;69;;;27;;
14320;SDS011;7244;47.364;8.464;2022-12-18T10:16:06;69;;;27;;
14320;SDS011;7244;47.364;8.464;2022-12-18T10:17:03;69;;;27;;
14320;SDS011;7244;47.364;8.464;2022-12-18T10:18:03;69;;;27;;
14320;SDS011;7244;47.364;8.464;2022-12-18T10:19:07;69;;;27;;
14320;SDS011;7244;47.364;8.464;2022-12-18T10:20:02;69;;;27;;
14320;SDS011;7244;47.364;8.464;2022-12-18T10:21:03;69;;;27;;
14320;SDS011;7244;47.364;8.464;2022-12-18T10:22:03;69;;;27;;
14320;SDS011;7244;47.364;8.464;2022-12-18T10:23:03;69;;;27;;
14320;SDS011;7244;47.364;8.464;2022-12-18T10:24:03;69;;;27;;
14320;SDS011;7244;47.364;8.464;2022-12-18T10:25:02;69;;;27;;
14320;SDS011;7244;47.364;8.464;2022-12-18T10:26:02;69;;;27;;
14320;SDS011;7244;47.364;8.464;2022-12-18T10:27:08;69;;;27;;
14320;SDS011;7244;47.364;8.464;2022-12-18T10:28:07;69;;;27;;
14320;SDS011;7244;47.364;8.464;2022-12-18T10:29:04;69;;;27;;
14320;SDS011;7244;47.364;8.464;2022-12-18T10:30:04;69;;;27;;
14320;SDS011;7244;47.364;8.464;2022-12-18T10:31:01;69;;;27;;
14320;SDS011;7244;47.364;8.464;2022-12-18T10:32:02;69;;;27;;
14320;SDS011;7244;47.364;8.464;2022-12-18T10:33:02;69;;;27;;
14320;SDS011;7244;47.364;8.464;2022-12-18T10:34:01;69;;;27;;
14320;SDS011;7244;47.364;8.464;2022-12-18T10:35:02;69;;;27;;
14320;SDS011;7244;47.364;8.464;2022-12-18T10:36:01;69;;;27;;
14320;SDS011;7244;47.364;8.464;2022-12-18T10:37:03;69;;;27;;
14320;SDS011;7244;47.364;8.464;2022-12-18T10:38:03;69;;;27;;
14320;SDS011;7244;47.364;8.464;2022-12-18T10:39:13;69;;;27;;
14320;SDS011;7244;47.364;8.464;2022-12-18T10:40:06;69;;;27;;
14320;SDS011;7244;47.364;8.464;2022-12-18T10:41:03;69;;;27;;
14320;SDS011;7244;47.364;8.464;2022-12-18T10:42:09;69;;;27;;
14320;SDS011;7244;47.364;8.464;2022-12-18T10:43:04;69;;;27;;
14320;SDS011;7244;47.364;8.464;2022-12-18T10:44:10;69;;;27;;
14320;SDS011;7244;47.364;8.464;2022-12-18T10:45:02;69;;;27;;
14320;SDS011;7244;47.364;8.464;2022-12-18T10:46:04;69;;;27;;
14320;SDS011;7244;47.364;8.464;2022-12-18T10:47:02;69;;;27;;
14320;SDS011;7244;47.364;8.464;2022-12-18T10:48:02;69;;;27;;
14320;SDS011;7244;47.364;8.464;2022-12-18T10:49:02;69;;;27;;
14320;SDS011;7244;47.364;8.464;2022-12-18T10:50:02;69;;;27;;
14320;SDS011;7244;47.364;8.464;2022-12-18T10:51:02;69;;;27;;
14320;SDS011;7244;47.364;8.464;2022-12-18T10:52:06;69;;;27;;
14320;SDS011;7244;47.364;8.464;2022-12-18T10:53:03;69;;;27;;
14320;SDS011;7244;47.364;8.464;2022-12-18T10:54:03;69;;;27;;
14320;SDS011;7244;47.364;8.464;2022-12-18T10:55:02;69;;;27;;
14320;SDS011;7244;47.364;8.464;2022-12-18T10:56:02;69;;;27;;
14320;SDS011;7244;47.364;8.464;2022-12-18T10:57:13;69;;;27;;
14320;SDS011;7244;47.364;8.464;2022-12-18T10:58:13;69;;;27;;
14320;SDS011;7244;47.364;8.464;2022-12-18T10:59:02;69;;;27;;
14320;SDS011;7244;47.364;8.464;2022-12-18T11:00:20;69;;;27;;
14320;SDS011;7244;47.364;8.464;2022-12-18T11:01:03;69;;;27;;
14320;SDS011;7244;47.364;8.464;2022-12-18T11:02:07;69;;;27;;
14320;SDS011;7244;47.364;8.464;2022-12-18T11:03:01;69;;;27;;
14320;SDS011;7244;47.364;8.464;2022-12-18T11:04:07;69;;;27;;
14320;SDS011;7244;47.364;8.464;2022-12-18T11:05:04;69;;;27;;
14320;SDS011;7244;47.364;8.464;2022-12-18T11:06:02;69;;;27;;
14320;SDS011;7244;47.364;8.464;2022-12-18T11:07:03;69;;;27;;
14320;SDS011;7244;47.364;8.464;2022-12-18T11:08:02;69;;;27;;
14320;SDS011;7244;47.364;8.464;2022-12-18T11:09:02;69;;;27;;
14320;SDS011;7244;47.364;8.464;2022-12-18T11:10:02;69;;;27;;
14320;SDS011;7244;47.364;8.464;2022-12-18T11:11:02;69;;;27;;
14320;SDS011;7244;47.364;8.464;2022-12-18T11:12:02;69;;;27;;
14320;SDS011;7244;47.364;8.464;2022-12-18T11:13:10;69;;;27;;
14320;SDS011;7244;47.364;8.464;2022-12-18T11:14:02;69;;;27;;
14320;SDS011;7244;47.364;8.464;2022-12-18T11:15:03;69;;;27;;
14320;SDS011;7244;47.364;8.464;2022-12-18T11:16:02;69;;;27;;
14320;SDS011;7244;47.364;8.464;2022-12-18T11:17:02;69;;;27;;
14320;SDS011;7244;47.364;8.464;2022-12-18T11:18:02;69;;;27;;
14320;SDS011;7244;47.364;8.464;2022-12-18T11:19:10;69;;;27;;
14320;SDS011;7244;47.364;8.464;2022-12-18T11:20:03;69;;;27;;
14320;SDS011;7244;47.364;8.464;2022-12-18T11:21:05;69;;;27;;
14320;SDS011;7244;47.364;8.464;2022-12-18T11:22:02;69;;;27;;
14320;SDS011;7244;47.364;8.464;2022-12-18T11:23:02;69;;;27;;
14320;SDS011;7244;47.364;8.464;2022-12-18T11:24:02;69;;;27;;
14320;SDS011;7244;47.364;8.464;2022-12-18T11:25:02;69;;;27;;
14320;SDS011;7244;47.364;8.464;2022-12-18T11:26:02;69;;;27;;
14320;SDS011;7244;47.364;8.464;2022-12-18T11:27:02;69;;;27;;
14320;SDS011;7244;47.364;8.464;2022-12-18T13:52:02;60;;;25;;
14320;SDS011;7244;47.364;8.464;2022-12-18T14:09:02;60;;;25;;
14320;SDS011;7244;47.364;8.464;2022-12-18T14:10:01;60;;;25;;
14320;SDS011;7244;47.364;8.464;2022-12-18T14:11:02;60;;;25;;
14320;SDS011;7244;47.364;8.464;2022-12-18T14:12:01;60;;;25;;
14320;SDS011;7244;47.364;8.464;2022-12-18T14:13:03;60;;;25;;
14320;SDS011;7244;47.364;8.464;2022-12-18T14:14:01;60;;;25;;
14320;SDS011;7244;47.364;8.464;2022-12-18T14:15:02;60;;;25;;
14320;SDS011;7244;47.364;8.464;2022-12-18T14:16:03;60;;;25;;
14320;SDS011;7244;47.364;8.464;2022-12-18T14:17:01;60;;;25;;
14320;SDS011;7244;47.364;8.464;2022-12-18T14:18:02;60;;;25;;
14320;SDS011;7244;47.364;8.464;2022-12-18T14:19:01;60;;;25;;
14320;SDS011;7244;47.364;8.464;2022-12-18T14:20:01;60;;;25;;
14320;SDS011;7244;47.364;8.464;2022-12-18T14:21:02;60;;;25;;
14320;SDS011;7244;47.364;8.464;2022-12-18T14:22:02;60;;;25;;
14320;SDS011;7244;47.364;8.464;2022-12-18T14:23:01;60;;;25;;
14320;SDS011;7244;47.364;8.464;2022-12-18T14:24:03;60;;;25;;
14320;SDS011;7244;47.364;8.464;2022-12-18T14:25:10;60;;;25;;
14320;SDS011;7244;47.364;8.464;2022-12-18T14:26:02;60;;;25;;
14320;SDS011;7244;47.364;8.464;2022-12-18T14:27:11;60;;;25;;
14320;SDS011;7244;47.364;8.464;2022-12-18T14:28:02;60;;;25;;
14320;SDS011;7244;47.364;8.464;2022-12-18T14:29:16;60;;;25;;
14320;SDS011;7244;47.364;8.464;2022-12-18T14:30:15;60;;;25;;
14320;SDS011;7244;47.364;8.464;2022-12-18T14:31:02;60;;;25;;
14320;SDS011;7244;47.364;8.464;2022-12-18T14:32:03;60;;;25;;
14320;SDS011;7244;47.364;8.464;2022-12-18T14:33:02;60;;;25;;
14320;SDS011;7244;47.364;8.464;2022-12-18T14:34:01;60;;;25;;
14320;SDS011;7244;47.364;8.464;2022-12-18T14:35:12;60;;;25;;
14320;SDS011;7244;47.364;8.464;2022-12-18T14:36:03;60;;;25;;
14320;SDS011;7244;47.364;8.464;2022-12-18T14:37:01;60;;;25;;
14320;SDS011;7244;47.364;8.464;2022-12-18T14:38:09;60;;;25;;
14320;SDS011;7244;47.364;8.464;2022-12-18T14:39:02;60;;;25;;
14320;SDS011;7244;47.364;8.464;2022-12-18T14:40:03;60;;;25;;
14320;SDS011;7244;47.364;8.464;2022-12-18T14:41:03;60;;;25;;
14320;SDS011;7244;47.364;8.464;2022-12-18T14:42:01;60;;;25;;
14320;SDS011;7244;47.364;8.464;2022-12-18T14:43:02;60;;;25;;
14320;SDS011;7244;47.364;8.464;2022-12-18T14:44:05;60;;;25;;
14320;SDS011;7244;47.364;8.464;2022-12-18T14:45:34;60;;;25;;
14320;SDS011;7244;47.364;8.464;2022-12-18T14:46:02;60;;;25;;
14320;SDS011;7244;47.364;8.464;2022-12-18T14:47:01;60;;;25;;
14320;SDS011;7244;47.364;8.464;2022-12-18T14:48:05;60;;;25;;
14320;SDS011;7244;47.364;8.464;2022-12-18T14:49:03;60;;;25;;
14320;SDS011;7244;47.364;8.464;2022-12-18T14:50:02;60;;;25;;
14320;SDS011;7244;47.364;8.464;2022-12-18T14:51:02;60;;;25;;
14320;SDS011;7244;47.364;8.464;2022-12-18T14:52:02;60;;;25;;
14320;SDS011;7244;47.364;8.464;2022-12-18T14:53:01;60;;;25;;
14320;SDS011;7244;47.364;8.464;2022-12-18T14:54:03;60;;;25;;
14320;SDS011;7244;47.364;8.464;2022-12-18T14:55:02;60;;;25;;
14320;SDS011;7244;47.364;8.464;2022-12-18T14:56:02;60;;;25;;
14320;SDS011;7244;47.364;8.464;2022-12-18T14:57:03;60;;;25;;
14320;SDS011;7244;47.364;8.464;2022-12-18T14:58:02;60;;;25;;
14320;SDS011;7244;47.364;8.464;2022-12-18T14:59:02;60;;;25;;
14320;SDS011;7244;47.364;8.464;2022-12-18T15:00:04;60;;;25;;
14320;SDS011;7244;47.364;8.464;2022-12-18T15:01:03;60;;;25;;
14320;SDS011;7244;47.364;8.464;2022-12-18T15:02:02;60;;;25;;
14320;SDS011;7244;47.364;8.464;2022-12-18T15:03:02;60;;;25;;
14320;SDS011;7244;47.364;8.464;2022-12-18T15:04:03;60;;;25;;
14320;SDS011;7244;47.364;8.464;2022-12-18T15:05:02;60;;;25;;
14320;SDS011;7244;47.364;8.464;2022-12-18T15:06:14;60;;;25;;
14320;SDS011;7244;47.364;8.464;2022-12-18T15:07:03;60;;;25;;
14320;SDS011;7244;47.364;8.464;2022-12-18T15:08:02;60;;;25;;
14320;SDS011;7244;47.364;8.464;2022-12-18T15:09:03;60;;;25;;
14320;SDS011;7244;47.364;8.464;2022-12-18T15:10:03;60;;;25;;
14320;SDS011;7244;47.364;8.464;2022-12-18T15:11:02;60;;;25;;
14320;SDS011;7244;47.364;8.464;2022-12-18T15:12:02;60;;;25;;
14320;SDS011;7244;47.364;8.464;2022-12-18T15:13:09;60;;;25;;
14320;SDS011;7244;47.364;8.464;2022-12-18T15:14:21;60;;;25;;
14320;SDS011;7244;47.364;8.464;2022-12-18T15:15:02;60;;;25;;
14320;SDS011;7244;47.364;8.464;2022-12-18T15:16:01;60;;;25;;
14320;SDS011;7244;47.364;8.464;2022-12-18T15:17:03;60;;;25;;
14320;SDS011;7244;47.364;8.464;2022-12-18T15:18:03;60;;;25;;
14320;SDS011;7244;47.364;8.464;2022-12-18T15:19:02;60;;;25;;
14320;SDS011;7244;47.364;8.464;2022-12-18T15:20:02;60;;;25;;
14320;SDS011;7244;47.364;8.464;2022-12-18T15:21:07;60;;;25;;
14320;SDS011;7244;47.364;8.464;2022-12-18T15:22:02;60;;;25;;
14320;SDS011;7244;47.364;8.464;2022-12-18T15:23:01;60;;;25;;
14320;SDS011;7244;47.364;8.464;2022-12-18T15:24:02;60;;;25;;
14320;SDS011;7244;47.364;8.464;2022-12-18T15:25:03;60;;;25;;
14320;SDS011;7244;47.364;8.464;2022-12-18T15:26:02;60;;;25;;
14320;SDS011;7244;47.364;8.464;2022-12-18T15:27:02;60;;;25;;
14320;SDS011;7244;47.364;8.464;2022-12-18T15:28:02;60;;;25;;
14320;SDS011;7244;47.364;8.464;2022-12-18T15:29:02;60;;;25;;
14320;SDS011;7244;47.364;8.464;2022-12-18T15:30:11;60;;;25;;
14320;SDS011;7244;47.364;8.464;2022-12-18T15:31:03;60;;;25;;
14320;SDS011;7244;47.364;8.464;2022-12-18T15:32:02;60;;;25;;
14320;SDS011;7244;47.364;8.464;2022-12-18T15:33:22;60;;;25;;
14320;SDS011;7244;47.364;8.464;2022-12-18T15:34:10;60;;;25;;
14320;SDS011;7244;47.364;8.464;2022-12-18T15:35:02;60;;;25;;
14320;SDS011;7244;47.364;8.464;2022-12-18T15:36:03;60;;;25;;
14320;SDS011;7244;47.364;8.464;2022-12-18T15:37:02;60;;;25;;
14320;SDS011;7244;47.364;8.464;2022-12-18T15:38:01;60;;;25;;
14320;SDS011;7244;47.364;8.464;2022-12-18T15:39:02;60;;;25;;
14320;SDS011;7244;47.364;8.464;2022-12-18T15:40:02;60;;;25;;
14320;SDS011;7244;47.364;8.464;2022-12-18T15:41:02;60;;;25;;
14320;SDS011;7244;47.364;8.464;2022-12-18T15:42:02;60;;;25;;
14320;SDS011;7244;47.364;8.464;2022-12-18T15:43:04;60;;;25;;
14320;SDS011;7244;47.364;8.464;2022-12-18T15:44:02;60;;;25;;
14320;SDS011;7244;47.364;8.464;2022-12-18T15:45:02;60;;;25;;
14320;SDS011;7244;47.364;8.464;2022-12-18T15:46:02;60;;;25;;
14320;SDS011;7244;47.364;8.464;2022-12-18T15:47:01;60;;;25;;
14320;SDS011;7244;47.364;8.464;2022-12-18T15:48:04;60;;;25;;
14320;SDS011;7244;47.364;8.464;2022-12-18T15:49:02;60;;;25;;
14320;SDS011;7244;47.364;8.464;2022-12-18T15:50:02;60;;;25;;
14320;SDS011;7244;47.364;8.464;2022-12-18T15:51:02;60;;;25;;
14320;SDS011;7244;47.364;8.464;2022-12-18T16:36:01;65;;;27;;
14320;SDS011;7244;47.364;8.464;2022-12-18T16:53:01;58;;;23;;
14320;SDS011;7244;47.364;8.464;2022-12-18T17:09:03;57;;;25;;
14320;SDS011;7244;47.364;8.464;2022-12-18T17:25:02;55;;;23;;
14320;SDS011;7244;47.364;8.464;2022-12-18T17:40:01;70;;;30;;
14320;SDS011;7244;47.364;8.464;2022-12-18T17:56:01;68;;;29;;
14320;SDS011;7244;47.364;8.464;2022-12-18T18:12:02;75;;;30;;
14320;SDS011;7244;47.364;8.464;2022-12-18T18:28:01;65;;;27;;
14320;SDS011;7244;47.364;8.464;2022-12-18T18:43:01;72;;;30;;
14320;SDS011;7244;47.364;8.464;2022-12-18T18:59:01;79;;;32;;
14320;SDS011;7244;47.364;8.464;2022-12-18T19:15:01;67;;;28;;
14320;SDS011;7244;47.364;8.464;2022-12-18T19:30:02;67;;;28;;
14320;SDS011;7244;47.364;8.464;2022-12-18T19:46:01;79;;;31;;
14320;SDS011;7244;47.364;8.464;2022-12-18T20:02:02;80;;;30;;
14320;SDS011;7244;47.364;8.464;2022-12-18T20:18:01;78;;;30;;
14320;SDS011;7244;47.364;8.464;2022-12-18T20:33:02;66;;;27;;
14320;SDS011;7244;47.364;8.464;2022-12-18T20:49:02;76;;;31;;
14320;SDS011;7244;47.364;8.464;2022-12-18T21:05:02;79;;;31;;
14320;SDS011;7244;47.364;8.464;2022-12-18T21:21:01;74;;;29;;
14320;SDS011;7244;47.364;8.464;2022-12-18T21:36:02;76;;;30;;
14320;SDS011;7244;47.364;8.464;2022-12-18T21:52:01;82;;;30;;
14320;SDS011;7244;47.364;8.464;2022-12-18T22:08:02;77;;;30;;
14320;SDS011;7244;47.364;8.464;2022-12-18T22:23:01;62;;;24;;
14320;SDS011;7244;47.364;8.464;2022-12-18T22:39:01;79;;;31;;
14320;SDS011;7244;47.364;8.464;2022-12-18T22:55:01;66;;;26;;
14320;SDS011;7244;47.364;8.464;2022-12-18T23:11:01;67;;;25;;
14320;SDS011;7244;47.364;8.464;2022-12-18T23:26:02;64;;;26;;
14320;SDS011;7244;47.364;8.464;2022-12-18T23:42:02;62;;;25;;
14320;SDS011;7244;47.364;8.464;2022-12-18T23:58:01;52;;;22;;
